Time;durP1;ratioP1;P1;durP2;ratioP2;P2;SDS_P1;SDS_P2;PMS_P1;PMS_P2;Temp;Humidity;BMP_temperature;BMP_pressure;BME280_temperature;BME280_humidity;BME280_pressure;Samples;Min_cycle;Max_cycle;Signal;HPM_P1;HPM_P2
2023/12/23 00:00:41;;;;;;;0.30;0.20;;;;;;;;;;5004600;28;20029;-83
2023/12/23 00:03:12;;;;;;;0.37;0.30;;;;;;;;;;4980510;28;20078;-83
2023/12/23 00:05:42;;;;;;;0.82;0.30;;;;;;;;;;4977661;28;20025;-83
2023/12/23 00:08:07;;;;;;;0.68;0.32;;;;;;;;;;4983040;28;20037;-84
2023/12/23 00:10:34;;;;;;;0.95;0.30;;;;;;;;;;5013967;28;20068;-84
2023/12/23 00:13:02;;;;;;;0.73;0.30;;;;;;;;;;4993766;28;20042;-83
2023/12/23 00:15:34;;;;;;;2.10;0.85;;;;;;;;;;4984931;28;20087;-84
2023/12/23 00:17:59;;;;;;;1.42;0.47;;;;;;;;;;4967795;28;20400;-83
2023/12/23 00:20:24;;;;;;;2.05;0.40;;;;;;;;;;4998682;28;20088;-82
2023/12/23 00:22:50;;;;;;;0.55;0.40;;;;;;;;;;4997718;28;20073;-82
2023/12/23 00:25:16;;;;;;;1.15;0.50;;;;;;;;;;5001942;28;20520;-83
2023/12/23 00:27:41;;;;;;;1.30;0.47;;;;;;;;;;4969706;28;20045;-85
2023/12/23 00:30:07;;;;;;;4.68;0.70;;;;;;;;;;4987802;28;20038;-83
2023/12/23 00:32:36;;;;;;;2.22;0.70;;;;;;;;;;4997073;28;20487;-82
2023/12/23 00:35:01;;;;;;;2.78;0.50;;;;;;;;;;4984855;28;20038;-83
2023/12/23 00:37:26;;;;;;;0.85;0.40;;;;;;;;;;4996594;28;20045;-83
2023/12/23 00:39:52;;;;;;;2.22;0.65;;;;;;;;;;4996910;28;20023;-83
2023/12/23 00:42:19;;;;;;;2.50;0.60;;;;;;;;;;4973195;28;20038;-83
2023/12/23 00:44:45;;;;;;;2.90;0.57;;;;;;;;;;4981626;28;20269;-83
2023/12/23 00:47:14;;;;;;;2.88;0.63;;;;;;;;;;4982500;28;20042;-84
2023/12/23 00:49:40;;;;;;;5.45;0.50;;;;;;;;;;4992336;28;20038;-83
2023/12/23 00:52:06;;;;;;;4.57;0.70;;;;;;;;;;4995502;28;20206;-83
2023/12/23 00:54:36;;;;;;;3.90;0.65;;;;;;;;;;4982556;28;20042;-84
2023/12/23 00:57:03;;;;;;;2.65;0.70;;;;;;;;;;4980075;28;20507;-81
2023/12/23 00:59:28;;;;;;;4.28;0.68;;;;;;;;;;4990121;28;20034;-83
2023/12/23 01:01:55;;;;;;;5.25;0.70;;;;;;;;;;4972747;28;20528;-81
2023/12/23 01:04:21;;;;;;;2.23;0.60;;;;;;;;;;4979862;28;20588;-84
2023/12/23 01:06:46;;;;;;;2.65;0.45;;;;;;;;;;4994693;28;20226;-83
2023/12/23 01:09:13;;;;;;;3.67;0.60;;;;;;;;;;4978978;28;20512;-84
2023/12/23 01:11:43;;;;;;;3.10;0.80;;;;;;;;;;4976652;28;20041;-84
2023/12/23 01:14:15;;;;;;;8.10;0.90;;;;;;;;;;4996037;28;20084;-81
2023/12/23 01:16:41;;;;;;;4.13;0.50;;;;;;;;;;4997440;28;20042;-83
2023/12/23 01:19:10;;;;;;;2.78;0.57;;;;;;;;;;4977514;28;20049;-83
2023/12/23 01:21:37;;;;;;;5.05;0.50;;;;;;;;;;5000089;28;20038;-83
2023/12/23 01:24:03;;;;;;;4.97;0.50;;;;;;;;;;4980799;28;20538;-83
2023/12/23 01:26:30;;;;;;;4.50;0.60;;;;;;;;;;4955781;28;20113;-82
2023/12/23 01:29:00;;;;;;;6.33;0.70;;;;;;;;;;4992052;28;20034;-82
2023/12/23 01:31:29;;;;;;;4.53;0.60;;;;;;;;;;4979522;28;20565;-83
2023/12/23 01:33:55;;;;;;;6.28;0.98;;;;;;;;;;4990808;28;20038;-83
2023/12/23 01:36:22;;;;;;;2.72;0.60;;;;;;;;;;5000254;28;20069;-83
2023/12/23 01:38:48;;;;;;;2.03;0.50;;;;;;;;;;4977252;28;20042;-82
2023/12/23 01:41:26;;;;;;;5.10;0.98;;;;;;;;;;5001034;28;20056;-83
2023/12/23 01:43:52;;;;;;;4.50;0.75;;;;;;;;;;4996354;28;20543;-83
2023/12/23 01:46:32;;;;;;;4.22;0.60;;;;;;;;;;4999555;28;20053;-83
2023/12/23 01:48:58;;;;;;;5.95;0.90;;;;;;;;;;5004245;28;20034;-82
2023/12/23 01:51:25;;;;;;;3.92;0.63;;;;;;;;;;4992275;28;20093;-83
2023/12/23 01:53:53;;;;;;;4.32;0.68;;;;;;;;;;4985506;28;20502;-84
2023/12/23 01:56:18;;;;;;;6.30;0.95;;;;;;;;;;4983486;28;20036;-83
2023/12/23 01:58:43;;;;;;;5.25;0.93;;;;;;;;;;4983343;28;20050;-84
2023/12/23 02:01:10;;;;;;;4.55;0.90;;;;;;;;;;4996514;28;20517;-84
2023/12/23 02:03:40;;;;;;;3.63;0.90;;;;;;;;;;4991963;28;20567;-84
2023/12/23 02:06:06;;;;;;;5.20;0.80;;;;;;;;;;4976114;28;20049;-84
2023/12/23 02:08:37;;;;;;;5.72;0.82;;;;;;;;;;5003683;28;20034;-82
2023/12/23 02:11:07;;;;;;;2.65;0.80;;;;;;;;;;4991887;28;20503;-83
2023/12/23 02:13:50;;;;;;;7.47;0.90;;;;;;;;;;5021493;28;20389;-82
2023/12/23 02:16:16;;;;;;;2.88;0.73;;;;;;;;;;4985465;28;20148;-82
2023/12/23 02:18:43;;;;;;;3.40;0.70;;;;;;;;;;4975279;28;20239;-84
2023/12/23 02:21:08;;;;;;;3.58;0.50;;;;;;;;;;4975983;28;20041;-83
2023/12/23 02:23:34;;;;;;;4.50;1.05;;;;;;;;;;4999814;28;20041;-85
2023/12/23 02:26:00;;;;;;;3.75;0.50;;;;;;;;;;4987527;28;20045;-85
2023/12/23 02:28:26;;;;;;;5.57;1.02;;;;;;;;;;4999916;28;20486;-83
2023/12/23 02:30:53;;;;;;;3.33;0.65;;;;;;;;;;4999970;28;20095;-84
2023/12/23 02:33:23;;;;;;;2.92;0.70;;;;;;;;;;4984574;28;20794;-84
2023/12/23 02:35:54;;;;;;;2.67;0.70;;;;;;;;;;4962394;28;20474;-82
2023/12/23 02:38:21;;;;;;;5.93;0.80;;;;;;;;;;4982901;28;20030;-83
2023/12/23 02:40:47;;;;;;;5.13;0.57;;;;;;;;;;4988729;28;20504;-83
2023/12/23 02:43:13;;;;;;;4.18;0.80;;;;;;;;;;4993419;28;20492;-82
2023/12/23 02:45:40;;;;;;;4.38;0.80;;;;;;;;;;4970139;28;20117;-82
2023/12/23 02:48:05;;;;;;;3.95;0.70;;;;;;;;;;4974483;28;20065;-82
2023/12/23 02:50:31;;;;;;;3.05;0.60;;;;;;;;;;4983785;28;20030;-82
2023/12/23 02:53:07;;;;;;;3.55;0.70;;;;;;;;;;4966766;28;20041;-83
2023/12/23 02:55:36;;;;;;;5.95;0.70;;;;;;;;;;4997607;28;20061;-83
2023/12/23 02:58:09;;;;;;;3.47;0.73;;;;;;;;;;4985873;28;20038;-82
2023/12/23 03:00:35;;;;;;;1.33;0.50;;;;;;;;;;4978019;28;20072;-83
2023/12/23 03:03:01;;;;;;;4.22;0.80;;;;;;;;;;4981167;28;20470;-83
2023/12/23 03:05:27;;;;;;;1.65;0.40;;;;;;;;;;4991156;28;20397;-83
2023/12/23 03:07:59;;;;;;;2.17;0.57;;;;;;;;;;4998068;28;20037;-84
2023/12/23 03:10:24;;;;;;;4.32;0.50;;;;;;;;;;4983615;28;20489;-82
2023/12/23 03:12:50;;;;;;;4.65;0.65;;;;;;;;;;5006527;28;20034;-83
2023/12/23 03:15:15;;;;;;;2.47;0.75;;;;;;;;;;4998898;28;20556;-83
2023/12/23 03:17:40;;;;;;;3.22;0.55;;;;;;;;;;4999539;28;20440;-83
2023/12/23 03:20:09;;;;;;;3.67;0.70;;;;;;;;;;4994694;28;20383;-83
2023/12/23 03:22:35;;;;;;;2.65;0.98;;;;;;;;;;5004757;28;20042;-83
2023/12/23 03:25:01;;;;;;;4.78;0.80;;;;;;;;;;4975268;28;20398;-83
2023/12/23 03:27:27;;;;;;;4.78;0.93;;;;;;;;;;4983256;28;20038;-83
2023/12/23 03:30:03;;;;;;;4.68;0.65;;;;;;;;;;4976521;28;20113;-82
2023/12/23 03:32:28;;;;;;;2.65;0.60;;;;;;;;;;4997986;28;20069;-83
2023/12/23 03:34:55;;;;;;;3.88;0.60;;;;;;;;;;5005065;28;20411;-81
2023/12/23 03:37:24;;;;;;;4.22;0.57;;;;;;;;;;4966678;28;20037;-83
2023/12/23 03:39:50;;;;;;;3.63;0.90;;;;;;;;;;4996344;28;20061;-83
2023/12/23 03:42:18;;;;;;;3.40;1.27;;;;;;;;;;4982219;28;20038;-83
2023/12/23 03:44:43;;;;;;;4.85;0.57;;;;;;;;;;4987408;28;21561;-82
2023/12/23 03:47:10;;;;;;;6.05;0.73;;;;;;;;;;4980015;28;20038;-83
2023/12/23 03:49:59;;;;;;;4.15;0.60;;;;;;;;;;4993751;28;20065;-83
2023/12/23 03:52:25;;;;;;;4.57;0.68;;;;;;;;;;4914352;29;20055;-82
2023/12/23 03:54:50;;;;;;;3.97;0.90;;;;;;;;;;4889388;29;20036;-82
2023/12/23 03:57:16;;;;;;;6.00;0.77;;;;;;;;;;4895570;29;20102;-82
2023/12/23 03:59:41;;;;;;;12.27;1.92;;;;;;;;;;4925554;29;20043;-82
2023/12/23 04:02:06;;;;;;;6.50;0.70;;;;;;;;;;4922558;29;20066;-83
2023/12/23 04:04:32;;;;;;;6.63;1.33;;;;;;;;;;4924200;29;20051;-82
2023/12/23 04:06:58;;;;;;;6.47;1.10;;;;;;;;;;4915832;29;20043;-83
2023/12/23 04:09:23;;;;;;;6.75;1.23;;;;;;;;;;4897987;29;20050;-81
2023/12/23 04:11:49;;;;;;;7.07;0.98;;;;;;;;;;4914696;29;20040;-82
2023/12/23 04:14:18;;;;;;;6.03;1.58;;;;;;;;;;4904458;29;20055;-82
2023/12/23 04:16:47;;;;;;;6.88;0.90;;;;;;;;;;4882874;29;20658;-82
2023/12/23 04:19:12;;;;;;;8.40;1.00;;;;;;;;;;4915118;29;20035;-81
2023/12/23 04:21:40;;;;;;;7.53;1.40;;;;;;;;;;4889211;29;20456;-82
2023/12/23 04:24:12;;;;;;;9.27;1.05;;;;;;;;;;4907076;29;20585;-82
2023/12/23 04:26:38;;;;;;;8.70;1.30;;;;;;;;;;4911891;29;20661;-83
2023/12/23 04:29:06;;;;;;;5.97;1.23;;;;;;;;;;4920636;28;20109;-83
2023/12/23 04:31:33;;;;;;;8.45;0.95;;;;;;;;;;4996784;28;20036;-83
2023/12/23 04:33:58;;;;;;;5.68;1.00;;;;;;;;;;4973156;28;20233;-81
2023/12/23 04:36:24;;;;;;;9.75;0.93;;;;;;;;;;4973961;28;20037;-80
2023/12/23 04:38:50;;;;;;;5.60;0.65;;;;;;;;;;4998835;28;20124;-82
2023/12/23 04:41:17;;;;;;;11.55;1.85;;;;;;;;;;4985353;28;20057;-83
2023/12/23 04:43:43;;;;;;;6.43;0.88;;;;;;;;;;5009627;28;20504;-83
2023/12/23 04:46:08;;;;;;;9.63;1.20;;;;;;;;;;4988931;28;20064;-83
2023/12/23 04:48:35;;;;;;;7.53;1.30;;;;;;;;;;4977357;28;20159;-84
2023/12/23 04:51:00;;;;;;;8.98;1.42;;;;;;;;;;5002783;28;20037;-82
2023/12/23 04:53:34;;;;;;;6.63;0.95;;;;;;;;;;4993501;28;20034;-82
2023/12/23 04:56:00;;;;;;;7.43;1.40;;;;;;;;;;4974458;28;20177;-83
2023/12/23 04:58:26;;;;;;;7.53;1.10;;;;;;;;;;4995692;28;20409;-82
2023/12/23 05:00:52;;;;;;;10.45;2.60;;;;;;;;;;5003576;28;20034;-83
2023/12/23 05:03:18;;;;;;;13.43;1.35;;;;;;;;;;5018471;28;20516;-83
2023/12/23 05:05:43;;;;;;;9.10;1.20;;;;;;;;;;4974825;28;20127;-82
2023/12/23 05:08:09;;;;;;;11.50;1.35;;;;;;;;;;4996517;28;20109;-82
2023/12/23 05:10:40;;;;;;;6.65;1.30;;;;;;;;;;4961327;28;20039;-83
2023/12/23 05:13:05;;;;;;;14.15;1.60;;;;;;;;;;5000419;28;20387;-84
2023/12/23 05:15:31;;;;;;;11.95;1.55;;;;;;;;;;4983518;28;20044;-83
2023/12/23 05:17:57;;;;;;;14.63;2.25;;;;;;;;;;5006558;28;20041;-84
2023/12/23 05:20:25;;;;;;;7.00;1.40;;;;;;;;;;4979420;28;20485;-83
2023/12/23 05:22:50;;;;;;;8.20;1.60;;;;;;;;;;4996432;28;20041;-84
2023/12/23 05:25:17;;;;;;;12.20;1.27;;;;;;;;;;4986415;28;20791;-83
2023/12/23 05:27:44;;;;;;;13.30;1.77;;;;;;;;;;4975747;28;20042;-83
2023/12/23 05:30:12;;;;;;;8.80;1.65;;;;;;;;;;4994655;28;20044;-82
2023/12/23 05:32:37;;;;;;;11.52;1.65;;;;;;;;;;4991283;28;20047;-83
2023/12/23 05:35:07;;;;;;;10.05;1.77;;;;;;;;;;4995841;28;20181;-82
2023/12/23 05:37:37;;;;;;;6.53;1.48;;;;;;;;;;4995373;28;20437;-83
2023/12/23 05:40:04;;;;;;;12.77;2.00;;;;;;;;;;4995168;28;20061;-83
2023/12/23 05:42:30;;;;;;;6.70;1.58;;;;;;;;;;4988667;28;20038;-83
2023/12/23 05:44:55;;;;;;;8.00;1.08;;;;;;;;;;4973736;28;20183;-83
2023/12/23 05:47:24;;;;;;;10.18;1.50;;;;;;;;;;4982358;28;20045;-83
2023/12/23 05:49:51;;;;;;;10.63;1.95;;;;;;;;;;4969111;28;20041;-85
2023/12/23 05:52:17;;;;;;;9.37;1.33;;;;;;;;;;4996833;28;20053;-85
2023/12/23 05:54:46;;;;;;;11.83;1.93;;;;;;;;;;4964317;28;20280;-83
2023/12/23 05:57:16;;;;;;;9.00;1.70;;;;;;;;;;4975213;28;20096;-82
2023/12/23 05:59:41;;;;;;;5.55;1.00;;;;;;;;;;4994531;28;20377;-82
2023/12/23 06:02:08;;;;;;;5.70;0.93;;;;;;;;;;4980218;28;20037;-83
2023/12/23 06:04:38;;;;;;;8.20;1.17;;;;;;;;;;4961868;28;20073;-82
2023/12/23 06:07:04;;;;;;;5.20;1.40;;;;;;;;;;5004525;28;20290;-83
2023/12/23 06:09:29;;;;;;;9.93;1.52;;;;;;;;;;4980932;28;20053;-82
2023/12/23 06:11:56;;;;;;;8.45;1.35;;;;;;;;;;4978982;28;20113;-82
2023/12/23 06:14:22;;;;;;;11.57;1.98;;;;;;;;;;4981451;28;20545;-82
2023/12/23 06:16:47;;;;;;;8.93;1.23;;;;;;;;;;4992691;28;20040;-82
2023/12/23 06:19:15;;;;;;;9.20;1.75;;;;;;;;;;4987657;28;20101;-82
2023/12/23 06:21:46;;;;;;;4.88;1.10;;;;;;;;;;4998640;28;20386;-82
2023/12/23 06:24:12;;;;;;;6.70;1.17;;;;;;;;;;5003826;28;20043;-83
2023/12/23 06:26:43;;;;;;;8.20;1.73;;;;;;;;;;4993479;28;20137;-82
2023/12/23 06:29:11;;;;;;;7.45;1.20;;;;;;;;;;4972490;28;20088;-82
2023/12/23 06:31:39;;;;;;;7.45;1.08;;;;;;;;;;4998103;28;20039;-82
2023/12/23 06:34:06;;;;;;;6.50;1.17;;;;;;;;;;5004015;28;20049;-83
2023/12/23 06:36:31;;;;;;;10.90;1.40;;;;;;;;;;4979052;28;20493;-82
2023/12/23 06:39:00;;;;;;;6.45;1.23;;;;;;;;;;4983300;28;20064;-82
2023/12/23 06:41:26;;;;;;;7.07;1.08;;;;;;;;;;4982337;28;20489;-82
2023/12/23 06:43:51;;;;;;;8.38;1.40;;;;;;;;;;4967799;28;20112;-83
2023/12/23 06:46:17;;;;;;;7.63;1.50;;;;;;;;;;4976469;28;20401;-82
2023/12/23 06:48:43;;;;;;;14.63;1.70;;;;;;;;;;4966981;28;20536;-84
2023/12/23 06:51:09;;;;;;;10.05;1.45;;;;;;;;;;4997758;28;20494;-84
2023/12/23 06:53:39;;;;;;;11.55;1.60;;;;;;;;;;4990084;28;20053;-82
2023/12/23 06:56:08;;;;;;;10.85;1.20;;;;;;;;;;5013435;28;20304;-84
2023/12/23 06:58:34;;;;;;;9.73;2.22;;;;;;;;;;5007708;28;20586;-83
2023/12/23 07:00:59;;;;;;;11.07;1.52;;;;;;;;;;4978753;28;20033;-82
2023/12/23 07:03:28;;;;;;;9.80;1.73;;;;;;;;;;4980448;28;20034;-83
2023/12/23 07:05:54;;;;;;;8.15;1.52;;;;;;;;;;4975452;28;20040;-82
2023/12/23 07:08:19;;;;;;;9.77;1.42;;;;;;;;;;5006623;28;20038;-82
2023/12/23 07:10:53;;;;;;;7.30;1.80;;;;;;;;;;4991328;28;20129;-82
2023/12/23 07:13:21;;;;;;;8.88;2.08;;;;;;;;;;4994118;28;20072;-82
2023/12/23 07:15:49;;;;;;;8.35;1.40;;;;;;;;;;4970416;28;20104;-81
2023/12/23 07:18:15;;;;;;;9.95;1.40;;;;;;;;;;4984663;28;20093;-81
2023/12/23 07:20:42;;;;;;;9.32;1.23;;;;;;;;;;4979751;28;20030;-82
2023/12/23 07:23:08;;;;;;;7.13;1.05;;;;;;;;;;4985809;28;20065;-83
2023/12/23 07:25:33;;;;;;;11.48;1.48;;;;;;;;;;4987097;28;20422;-82
2023/12/23 07:27:59;;;;;;;7.40;1.05;;;;;;;;;;5001996;28;20575;-82
2023/12/23 07:30:24;;;;;;;9.20;1.48;;;;;;;;;;5023247;28;20060;-81
2023/12/23 07:32:50;;;;;;;10.30;1.50;;;;;;;;;;4998013;28;20144;-83
2023/12/23 07:35:20;;;;;;;6.68;1.08;;;;;;;;;;5002838;28;20044;-82
2023/12/23 07:37:46;;;;;;;7.72;1.52;;;;;;;;;;4985641;28;20357;-81
2023/12/23 07:40:12;;;;;;;8.88;1.60;;;;;;;;;;4985778;28;20096;-81
2023/12/23 07:42:41;;;;;;;7.43;1.40;;;;;;;;;;4983737;28;20122;-82
2023/12/23 07:45:07;;;;;;;7.55;1.40;;;;;;;;;;4960319;28;20675;-82
2023/12/23 07:47:32;;;;;;;9.43;1.75;;;;;;;;;;4983059;28;20057;-81
2023/12/23 07:49:57;;;;;;;6.97;1.67;;;;;;;;;;4999325;28;20034;-82
2023/12/23 07:52:23;;;;;;;8.75;1.60;;;;;;;;;;4973957;28;20515;-82
2023/12/23 07:54:48;;;;;;;7.25;1.65;;;;;;;;;;4985343;28;20038;-83
2023/12/23 07:57:17;;;;;;;7.80;1.55;;;;;;;;;;4981285;28;20049;-83
2023/12/23 07:59:46;;;;;;;5.03;1.40;;;;;;;;;;4976680;28;20034;-84
2023/12/23 08:02:12;;;;;;;7.05;1.30;;;;;;;;;;4972519;28;20022;-83
2023/12/23 08:04:38;;;;;;;8.82;1.60;;;;;;;;;;4997747;28;20101;-83
2023/12/23 08:07:03;;;;;;;11.27;1.83;;;;;;;;;;4961522;28;20035;-82
2023/12/23 08:09:32;;;;;;;6.38;1.05;;;;;;;;;;4978685;28;20084;-82
2023/12/23 08:11:57;;;;;;;6.40;1.38;;;;;;;;;;4989091;28;20034;-82
2023/12/23 08:14:43;;;;;;;4.40;0.77;;;;;;;;;;4994377;28;20041;-83
2023/12/23 08:17:13;;;;;;;4.80;1.23;;;;;;;;;;4897297;29;20060;-83
2023/12/23 08:19:39;;;;;;;7.20;1.10;;;;;;;;;;4911898;29;20542;-81
2023/12/23 08:22:05;;;;;;;5.00;1.10;;;;;;;;;;4896492;29;20119;-82
2023/12/23 08:24:31;;;;;;;4.60;1.10;;;;;;;;;;4911031;29;20126;-83
2023/12/23 08:27:02;;;;;;;5.45;0.80;;;;;;;;;;4901679;29;20575;-82
2023/12/23 08:29:27;;;;;;;4.00;0.90;;;;;;;;;;4901830;29;20063;-82
2023/12/23 08:31:52;;;;;;;6.28;1.65;;;;;;;;;;4876544;29;20044;-83
2023/12/23 08:34:22;;;;;;;9.65;1.50;;;;;;;;;;4902040;29;20118;-84
2023/12/23 08:36:50;;;;;;;7.32;1.27;;;;;;;;;;4908589;29;20036;-84
2023/12/23 08:39:16;;;;;;;5.93;1.10;;;;;;;;;;4895697;29;20044;-84
2023/12/23 08:41:42;;;;;;;5.97;0.95;;;;;;;;;;4886849;29;20175;-85
2023/12/23 08:44:10;;;;;;;5.95;1.15;;;;;;;;;;4886138;29;20139;-84
2023/12/23 08:46:37;;;;;;;4.28;1.83;;;;;;;;;;4894461;29;20036;-85
2023/12/23 08:49:02;;;;;;;9.82;1.55;;;;;;;;;;4888348;29;20119;-85
2023/12/23 08:51:36;;;;;;;7.15;1.30;;;;;;;;;;4890647;29;20132;-83
2023/12/23 08:54:05;;;;;;;6.90;1.20;;;;;;;;;;4935286;28;20048;-82
2023/12/23 08:56:33;;;;;;;6.40;1.30;;;;;;;;;;4995670;28;20045;-84
2023/12/23 08:58:59;;;;;;;6.55;1.35;;;;;;;;;;4996583;28;20034;-83
2023/12/23 09:01:40;;;;;;;8.20;1.42;;;;;;;;;;5003504;28;20150;-87
2023/12/23 09:04:05;;;;;;;6.78;1.30;;;;;;;;;;4974545;28;20137;-84
2023/12/23 09:06:31;;;;;;;5.05;1.17;;;;;;;;;;4983768;28;20142;-83
2023/12/23 09:09:01;;;;;;;7.63;1.38;;;;;;;;;;4978110;28;20034;-83
2023/12/23 09:11:27;;;;;;;5.65;1.08;;;;;;;;;;4977211;28;20098;-82
2023/12/23 09:13:53;;;;;;;7.55;1.30;;;;;;;;;;4969325;28;20049;-82
2023/12/23 09:16:18;;;;;;;8.52;1.40;;;;;;;;;;4965437;28;20383;-84
2023/12/23 09:18:44;;;;;;;7.22;1.63;;;;;;;;;;4977757;28;20120;-85
2023/12/23 09:21:09;;;;;;;6.72;1.27;;;;;;;;;;4998661;28;20364;-81
2023/12/23 09:23:35;;;;;;;7.10;1.00;;;;;;;;;;4989388;28;20076;-80
2023/12/23 09:26:00;;;;;;;5.47;0.80;;;;;;;;;;4989139;28;20038;-83
2023/12/23 09:28:34;;;;;;;5.40;0.70;;;;;;;;;;4990373;28;20040;-81
2023/12/23 09:31:00;;;;;;;3.00;0.70;;;;;;;;;;4976894;28;20414;-82
2023/12/23 09:33:26;;;;;;;5.78;0.90;;;;;;;;;;4983338;28;20040;-83
2023/12/23 09:35:53;;;;;;;5.60;1.00;;;;;;;;;;4999240;28;20034;-82
2023/12/23 09:38:19;;;;;;;4.30;0.65;;;;;;;;;;4985850;28;20141;-83
2023/12/23 09:40:44;;;;;;;4.32;1.25;;;;;;;;;;5000310;28;20573;-83
2023/12/23 09:43:21;;;;;;;4.25;0.80;;;;;;;;;;4988118;28;20172;-84
2023/12/23 09:45:47;;;;;;;3.30;0.70;;;;;;;;;;4989468;28;20034;-83
2023/12/23 09:48:17;;;;;;;3.67;0.88;;;;;;;;;;4979616;28;20553;-84
2023/12/23 09:50:42;;;;;;;3.60;0.75;;;;;;;;;;4988583;28;20088;-83
2023/12/23 09:53:13;;;;;;;8.95;1.20;;;;;;;;;;4973798;28;20069;-84
2023/12/23 09:55:39;;;;;;;6.75;0.90;;;;;;;;;;5002715;28;20031;-84
2023/12/23 09:58:13;;;;;;;4.15;0.90;;;;;;;;;;4981532;28;20494;-83
2023/12/23 10:00:39;;;;;;;4.95;0.90;;;;;;;;;;4980639;28;20524;-84
2023/12/23 10:03:05;;;;;;;2.95;0.63;;;;;;;;;;4979104;28;20081;-85
2023/12/23 10:05:31;;;;;;;2.38;0.70;;;;;;;;;;4978117;28;20030;-84
2023/12/23 10:08:00;;;;;;;3.30;0.80;;;;;;;;;;4978213;28;20041;-83
2023/12/23 10:10:26;;;;;;;2.58;0.90;;;;;;;;;;4987989;28;20034;-81
2023/12/23 10:12:54;;;;;;;5.82;0.95;;;;;;;;;;5006116;28;20034;-79
2023/12/23 10:15:22;;;;;;;4.32;0.80;;;;;;;;;;4982562;28;20045;-77
2023/12/23 10:17:47;;;;;;;;;;;;;;;;;;4998315;28;20169;-79
2023/12/23 10:20:13;;;;;;;2.75;0.80;;;;;;;;;;4992005;28;20444;-80
2023/12/23 10:22:44;;;;;;;3.22;0.70;;;;;;;;;;4987493;28;20026;-79
2023/12/23 10:25:09;;;;;;;3.05;0.70;;;;;;;;;;4988946;28;20482;-80
2023/12/23 10:27:40;;;;;;;1.60;0.50;;;;;;;;;;4998765;28;20045;-79
2023/12/23 10:30:08;;;;;;;1.77;0.60;;;;;;;;;;4999685;28;20057;-82
2023/12/23 10:32:35;;;;;;;1.40;0.50;;;;;;;;;;4997679;28;20026;-82
2023/12/23 10:35:04;;;;;;;3.13;0.75;;;;;;;;;;4983015;28;20520;-81
2023/12/23 10:37:30;;;;;;;2.80;0.70;;;;;;;;;;4974411;28;20038;-82
2023/12/23 10:39:59;;;;;;;3.15;0.68;;;;;;;;;;4993158;28;20030;-80
2023/12/23 10:42:26;;;;;;;2.58;0.70;;;;;;;;;;4990780;28;20970;-82
2023/12/23 10:44:51;;;;;;;3.33;0.60;;;;;;;;;;4988484;28;20069;-81
2023/12/23 10:47:17;;;;;;;1.98;0.63;;;;;;;;;;4979041;28;20084;-80
2023/12/23 10:49:45;;;;;;;2.42;0.70;;;;;;;;;;4996322;28;20045;-80
2023/12/23 10:52:13;;;;;;;2.65;0.75;;;;;;;;;;4992316;28;20038;-80
2023/12/23 10:54:39;;;;;;;4.72;1.00;;;;;;;;;;4987646;28;20117;-81
2023/12/23 10:57:05;;;;;;;2.40;0.90;;;;;;;;;;5002051;28;20153;-81
2023/12/23 10:59:30;;;;;;;4.25;1.00;;;;;;;;;;4973492;28;20037;-81
2023/12/23 11:01:57;;;;;;;2.50;1.02;;;;;;;;;;5001887;28;20041;-80
2023/12/23 11:04:31;;;;;;;3.13;0.98;;;;;;;;;;5001183;28;20109;-84
2023/12/23 11:07:03;;;;;;;2.53;0.77;;;;;;;;;;4987652;28;20096;-79
2023/12/23 11:09:30;;;;;;;4.38;1.42;;;;;;;;;;4986751;28;20048;-79
2023/12/23 11:11:56;;;;;;;3.08;1.00;;;;;;;;;;4998207;28;20039;-79
2023/12/23 11:14:22;;;;;;;3.45;1.23;;;;;;;;;;4984759;28;20034;-79
2023/12/23 11:16:50;;;;;;;2.90;1.35;;;;;;;;;;5000767;28;20037;-80
2023/12/23 11:19:15;;;;;;;3.03;1.20;;;;;;;;;;5000538;28;25388;-79
2023/12/23 11:21:41;;;;;;;2.53;1.02;;;;;;;;;;5008037;28;20041;-79
2023/12/23 11:24:33;;;;;;;4.38;1.00;;;;;;;;;;4990357;28;20050;-80
2023/12/23 11:27:09;;;;;;;3.47;0.90;;;;;;;;;;4976317;28;20583;-79
2023/12/23 11:29:35;;;;;;;6.37;0.97;;;;;;;;;;4985799;28;20077;-81
2023/12/23 11:32:18;;;;;;;3.53;0.98;;;;;;;;;;4993040;28;20124;-80
2023/12/23 11:34:44;;;;;;;2.95;1.10;;;;;;;;;;4986680;28;20069;-81
2023/12/23 11:37:11;;;;;;;3.67;1.08;;;;;;;;;;4978858;28;20038;-80
2023/12/23 11:39:37;;;;;;;3.03;1.13;;;;;;;;;;4999576;28;20058;-79
2023/12/23 11:42:03;;;;;;;5.95;1.42;;;;;;;;;;4997236;28;20062;-80
2023/12/23 11:44:29;;;;;;;2.90;0.90;;;;;;;;;;4996508;28;20359;-79
2023/12/23 11:46:57;;;;;;;2.80;0.80;;;;;;;;;;4983025;28;20034;-79
2023/12/23 11:49:22;;;;;;;2.83;1.05;;;;;;;;;;4999082;28;20145;-80
2023/12/23 11:51:48;;;;;;;1.83;0.68;;;;;;;;;;4979194;28;20118;-79
2023/12/23 11:54:13;;;;;;;2.53;0.75;;;;;;;;;;4969965;28;20053;-79
2023/12/23 11:56:51;;;;;;;3.05;0.90;;;;;;;;;;4995741;28;20034;-80
2023/12/23 11:59:16;;;;;;;3.38;1.00;;;;;;;;;;4987560;28;20576;-79
2023/12/23 12:01:47;;;;;;;4.25;1.27;;;;;;;;;;4998391;28;20037;-79
2023/12/23 12:04:13;;;;;;;3.58;1.35;;;;;;;;;;4979642;28;20044;-80
2023/12/23 12:06:38;;;;;;;2.53;1.00;;;;;;;;;;4989281;28;20105;-81
2023/12/23 12:09:06;;;;;;;1.90;0.90;;;;;;;;;;5004434;28;20561;-80
2023/12/23 12:11:41;;;;;;;1.77;0.80;;;;;;;;;;4985255;28;20057;-81
2023/12/23 12:14:07;;;;;;;2.40;0.88;;;;;;;;;;5006189;28;20587;-81
2023/12/23 12:16:42;;;;;;;2.17;0.82;;;;;;;;;;4971616;28;20890;-80
2023/12/23 12:19:08;;;;;;;2.03;0.93;;;;;;;;;;4986088;28;20414;-80
2023/12/23 12:21:33;;;;;;;2.45;0.82;;;;;;;;;;5001684;28;20036;-80
2023/12/23 12:23:59;;;;;;;2.13;0.80;;;;;;;;;;4993592;28;20034;-80
2023/12/23 12:26:25;;;;;;;3.35;0.90;;;;;;;;;;4982726;28;20061;-80
2023/12/23 12:28:50;;;;;;;4.50;0.90;;;;;;;;;;4998527;28;20031;-79
2023/12/23 12:31:17;;;;;;;2.42;0.65;;;;;;;;;;5002537;28;20192;-79
2023/12/23 12:33:45;;;;;;;3.50;0.90;;;;;;;;;;4980006;28;20065;-80
2023/12/23 12:36:13;;;;;;;2.85;1.00;;;;;;;;;;4989266;28;20053;-80
2023/12/23 12:38:40;;;;;;;2.10;0.82;;;;;;;;;;4989722;28;20045;-80
2023/12/23 12:41:13;;;;;;;2.80;0.93;;;;;;;;;;4964197;28;20038;-79
2023/12/23 12:43:40;;;;;;;4.63;0.98;;;;;;;;;;4987487;28;20121;-79
2023/12/23 12:46:06;;;;;;;3.08;1.05;;;;;;;;;;4992296;28;20038;-79
2023/12/23 12:48:34;;;;;;;3.15;0.93;;;;;;;;;;4982573;28;20037;-79
2023/12/23 12:51:00;;;;;;;4.28;0.93;;;;;;;;;;4977716;28;20034;-79
2023/12/23 12:53:25;;;;;;;2.00;0.73;;;;;;;;;;5003415;28;20064;-79
2023/12/23 12:55:53;;;;;;;2.25;0.80;;;;;;;;;;5009899;28;20044;-79
2023/12/23 12:58:23;;;;;;;4.80;1.10;;;;;;;;;;5003601;28;20083;-79
2023/12/23 13:00:50;;;;;;;2.70;0.90;;;;;;;;;;4985460;28;20103;-79
2023/12/23 13:03:16;;;;;;;2.58;1.00;;;;;;;;;;5000385;28;20501;-79
2023/12/23 13:05:59;;;;;;;4.10;1.10;;;;;;;;;;5100719;27;20798;-79
2023/12/23 13:08:24;;;;;;;4.22;1.00;;;;;;;;;;5074920;28;20056;-79
2023/12/23 13:10:50;;;;;;;2.83;0.90;;;;;;;;;;5104433;27;20048;-80
2023/12/23 13:13:19;;;;;;;4.30;1.10;;;;;;;;;;5067751;28;20048;-79
2023/12/23 13:15:44;;;;;;;5.20;1.15;;;;;;;;;;5063511;28;20043;-80
2023/12/23 13:18:10;;;;;;;3.45;1.00;;;;;;;;;;5058488;27;20132;-79
2023/12/23 13:20:35;;;;;;;2.45;0.68;;;;;;;;;;5096144;27;20490;-79
2023/12/23 13:23:01;;;;;;;2.33;0.70;;;;;;;;;;5076708;27;20434;-79
2023/12/23 13:25:26;;;;;;;4.70;0.80;;;;;;;;;;5061301;27;20037;-80
2023/12/23 13:27:51;;;;;;;4.40;0.73;;;;;;;;;;5065739;28;20123;-79
2023/12/23 13:30:17;;;;;;;1.92;0.65;;;;;;;;;;5083923;28;20033;-79
2023/12/23 13:32:42;;;;;;;3.22;0.60;;;;;;;;;;5065176;28;20028;-79
2023/12/23 13:35:08;;;;;;;2.08;0.50;;;;;;;;;;5090097;28;20406;-79
2023/12/23 13:37:33;;;;;;;1.98;0.60;;;;;;;;;;5081456;27;20032;-79
2023/12/23 13:39:59;;;;;;;3.03;0.82;;;;;;;;;;5078503;28;20033;-79
2023/12/23 13:42:24;;;;;;;2.20;0.65;;;;;;;;;;5082396;28;20074;-80
2023/12/23 13:44:50;;;;;;;2.13;0.70;;;;;;;;;;5073988;28;20032;-79
2023/12/23 13:47:15;;;;;;;2.85;0.68;;;;;;;;;;5091171;27;20047;-79
2023/12/23 13:50:10;;;;;;;2.95;0.70;;;;;;;;;;5077418;28;20039;-79
2023/12/23 13:52:41;;;;;;;4.32;0.93;;;;;;;;;;5071039;28;20641;-78
2023/12/23 13:55:08;;;;;;;2.38;0.80;;;;;;;;;;5083176;28;20043;-79
2023/12/23 13:57:36;;;;;;;2.72;0.90;;;;;;;;;;5084190;28;20048;-79
2023/12/23 14:00:02;;;;;;;2.22;0.80;;;;;;;;;;5070201;28;20582;-79
2023/12/23 14:02:27;;;;;;;5.95;1.40;;;;;;;;;;5071252;28;20029;-80
2023/12/23 14:04:53;;;;;;;3.15;1.17;;;;;;;;;;5072446;28;20151;-79
2023/12/23 14:07:18;;;;;;;3.92;0.90;;;;;;;;;;5075295;28;20054;-79
2023/12/23 14:09:44;;;;;;;2.05;0.85;;;;;;;;;;5046779;28;20506;-80
2023/12/23 14:12:09;;;;;;;3.78;1.20;;;;;;;;;;5069916;28;20039;-79
2023/12/23 14:14:34;;;;;;;3.58;1.23;;;;;;;;;;5071496;28;20036;-80
2023/12/23 14:17:00;;;;;;;5.22;1.13;;;;;;;;;;5058545;28;20062;-80
2023/12/23 14:19:25;;;;;;;6.68;1.25;;;;;;;;;;5060821;28;20029;-81
2023/12/23 14:21:51;;;;;;;2.80;0.88;;;;;;;;;;5052989;28;20048;-81
2023/12/23 14:24:16;;;;;;;4.90;1.27;;;;;;;;;;5048936;28;20050;-80
2023/12/23 14:26:48;;;;;;;3.53;1.13;;;;;;;;;;5054634;28;20063;-80
2023/12/23 14:29:14;;;;;;;2.63;0.80;;;;;;;;;;5049383;28;20105;-80
2023/12/23 14:31:39;;;;;;;3.53;0.90;;;;;;;;;;5035971;28;20601;-79
2023/12/23 14:34:05;;;;;;;3.63;1.00;;;;;;;;;;5058911;28;20029;-78
2023/12/23 14:36:32;;;;;;;2.60;1.02;;;;;;;;;;5060222;28;20034;-79
2023/12/23 14:39:02;;;;;;;4.05;0.93;;;;;;;;;;5038078;28;20036;-79
2023/12/23 14:41:28;;;;;;;4.45;1.15;;;;;;;;;;5055653;28;20025;-79
2023/12/23 14:43:53;;;;;;;5.10;1.30;;;;;;;;;;5057053;28;20471;-81